sensor_id;sensor_type;location;lat;lon;timestamp;pressure;altitude;pressure_sealevel;temperature;humidity
42887;BME280;29032;56.028;92.904;2022-11-15T00:01:20;98171.13;;;5.39;53.25
42887;BME280;29032;56.028;92.904;2022-11-15T00:06:40;98164.53;;;5.42;53.65
42887;BME280;29032;56.028;92.904;2022-11-15T00:12:04;98148.91;;;5.71;53.64
42887;BME280;29032;56.028;92.904;2022-11-15T00:17:24;98157.81;;;5.90;53.42
42887;BME280;29032;56.028;92.904;2022-11-15T00:22:45;98130.19;;;6.03;52.90
42887;BME280;29032;56.028;92.904;2022-11-15T00:28:08;98123.44;;;6.12;53.20
42887;BME280;29032;56.028;92.904;2022-11-15T00:33:28;98124.66;;;6.03;53.78
42887;BME280;29032;56.028;92.904;2022-11-15T00:38:49;98116.75;;;6.07;53.75
42887;BME280;29032;56.028;92.904;2022-11-15T00:44:11;98118.66;;;6.13;52.62
42887;BME280;29032;56.028;92.904;2022-11-15T00:49:33;98106.47;;;5.95;52.38
42887;BME280;29032;56.028;92.904;2022-11-15T00:54:53;98116.84;;;5.81;53.29
42887;BME280;29032;56.028;92.904;2022-11-15T01:00:16;98107.69;;;5.86;50.91
42887;BME280;29032;56.028;92.904;2022-11-15T01:05:37;98111.06;;;5.92;50.45
42887;BME280;29032;56.028;92.904;2022-11-15T01:11:01;98113.16;;;6.13;50.95
42887;BME280;29032;56.028;92.904;2022-11-15T01:16:22;98115.66;;;6.24;51.12
42887;BME280;29032;56.028;92.904;2022-11-15T01:21:43;98108.84;;;6.25;50.80
42887;BME280;29032;56.028;92.904;2022-11-15T01:27:03;98108.25;;;6.19;50.31
42887;BME280;29032;56.028;92.904;2022-11-15T01:32:25;98113.72;;;6.32;50.23
42887;BME280;29032;56.028;92.904;2022-11-15T01:37:46;98107.84;;;6.35;49.93
42887;BME280;29032;56.028;92.904;2022-11-15T01:43:23;98102.47;;;6.51;48.97
42887;BME280;29032;56.028;92.904;2022-11-15T01:48:45;98116.56;;;6.40;49.59
42887;BME280;29032;56.028;92.904;2022-11-15T01:54:08;98106.44;;;6.42;49.61
42887;BME280;29032;56.028;92.904;2022-11-15T01:59:30;98088.91;;;6.40;48.27
42887;BME280;29032;56.028;92.904;2022-11-15T02:04:52;98071.78;;;6.41;47.54
42887;BME280;29032;56.028;92.904;2022-11-15T02:10:17;98080.69;;;6.47;48.89
42887;BME280;29032;56.028;92.904;2022-11-15T02:15:41;98083.25;;;6.45;48.57
42887;BME280;29032;56.028;92.904;2022-11-15T02:21:17;98077.31;;;6.41;48.78
42887;BME280;29032;56.028;92.904;2022-11-15T02:32:48;98064.63;;;6.25;47.67
42887;BME280;29032;56.028;92.904;2022-11-15T02:38:18;98067.19;;;6.23;47.09
42887;BME280;29032;56.028;92.904;2022-11-15T02:43:47;98077.19;;;6.26;48.01
42887;BME280;29032;56.028;92.904;2022-11-15T02:49:11;98074.56;;;6.41;47.30
42887;BME280;29032;56.028;92.904;2022-11-15T02:54:33;98074.13;;;6.58;46.72
42887;BME280;29032;56.028;92.904;2022-11-15T03:00:03;98074.63;;;6.70;47.15
42887;BME280;29032;56.028;92.904;2022-11-15T03:05:33;98078.41;;;6.80;47.18
42887;BME280;29032;56.028;92.904;2022-11-15T03:11:01;98074.72;;;6.85;47.08
42887;BME280;29032;56.028;92.904;2022-11-15T03:16:24;98064.72;;;7.03;45.08
42887;BME280;29032;56.028;92.904;2022-11-15T03:21:49;98071.31;;;6.71;45.87
42887;BME280;29032;56.028;92.904;2022-11-15T03:27:14;98074.22;;;6.66;45.57
42887;BME280;29032;56.028;92.904;2022-11-15T03:32:38;98075.91;;;6.69;45.53
42887;BME280;29032;56.028;92.904;2022-11-15T03:38:06;98080.00;;;6.75;45.44
42887;BME280;29032;56.028;92.904;2022-11-15T03:43:35;98079.88;;;6.81;45.16
42887;BME280;29032;56.028;92.904;2022-11-15T03:49:04;98053.38;;;6.93;45.99
42887;BME280;29032;56.028;92.904;2022-11-15T03:54:28;98052.69;;;7.00;44.38
42887;BME280;29032;56.028;92.904;2022-11-15T03:59:48;98058.81;;;7.06;44.87
42887;BME280;29032;56.028;92.904;2022-11-15T04:05:08;98057.75;;;7.09;44.70
42887;BME280;29032;56.028;92.904;2022-11-15T04:10:31;98053.25;;;7.27;45.27
42887;BME280;29032;56.028;92.904;2022-11-15T04:15:52;98058.84;;;7.35;44.18
42887;BME280;29032;56.028;92.904;2022-11-15T04:21:12;98056.66;;;7.41;44.31
42887;BME280;29032;56.028;92.904;2022-11-15T04:26:34;98052.47;;;7.55;44.06
42887;BME280;29032;56.028;92.904;2022-11-15T04:31:54;98055.25;;;7.55;44.58
42887;BME280;29032;56.028;92.904;2022-11-15T04:37:15;98046.78;;;7.61;44.39
42887;BME280;29032;56.028;92.904;2022-11-15T04:42:36;98035.41;;;7.80;43.55
42887;BME280;29032;56.028;92.904;2022-11-15T04:47:57;98037.31;;;7.92;44.19
42887;BME280;29032;56.028;92.904;2022-11-15T04:53:17;98036.97;;;8.11;44.30
42887;BME280;29032;56.028;92.904;2022-11-15T04:58:39;98016.81;;;8.18;43.19
42887;BME280;29032;56.028;92.904;2022-11-15T05:03:59;98025.88;;;8.11;43.20
42887;BME280;29032;56.028;92.904;2022-11-15T05:09:20;98023.84;;;8.12;43.31
42887;BME280;29032;56.028;92.904;2022-11-15T05:14:42;98025.31;;;8.13;43.67
42887;BME280;29032;56.028;92.904;2022-11-15T05:20:03;98010.34;;;8.08;42.90
42887;BME280;29032;56.028;92.904;2022-11-15T05:25:23;98007.94;;;8.05;43.21
42887;BME280;29032;56.028;92.904;2022-11-15T05:30:45;97995.75;;;8.08;42.90
42887;BME280;29032;56.028;92.904;2022-11-15T05:36:09;97979.31;;;8.10;43.33
42887;BME280;29032;56.028;92.904;2022-11-15T05:41:34;97967.31;;;8.07;43.24
42887;BME280;29032;56.028;92.904;2022-11-15T05:46:57;97958.25;;;8.22;43.17
42887;BME280;29032;56.028;92.904;2022-11-15T05:52:21;97949.00;;;8.42;43.98
42887;BME280;29032;56.028;92.904;2022-11-15T05:57:42;97949.19;;;8.52;42.83
42887;BME280;29032;56.028;92.904;2022-11-15T06:03:04;97934.94;;;8.63;43.68
42887;BME280;29032;56.028;92.904;2022-11-15T06:08:25;97921.59;;;8.62;42.81
42887;BME280;29032;56.028;92.904;2022-11-15T06:13:45;97914.41;;;8.59;43.04
42887;BME280;29032;56.028;92.904;2022-11-15T06:19:07;97911.25;;;8.54;42.57
42887;BME280;29032;56.028;92.904;2022-11-15T06:24:27;97904.25;;;8.46;43.28
42887;BME280;29032;56.028;92.904;2022-11-15T06:29:48;97898.69;;;8.46;42.61
42887;BME280;29032;56.028;92.904;2022-11-15T06:35:10;97893.88;;;8.54;42.63
42887;BME280;29032;56.028;92.904;2022-11-15T06:40:32;97870.59;;;8.57;42.76
42887;BME280;29032;56.028;92.904;2022-11-15T06:45:53;97874.97;;;8.68;42.49
42887;BME280;29032;56.028;92.904;2022-11-15T06:51:15;97872.00;;;8.81;42.16
42887;BME280;29032;56.028;92.904;2022-11-15T06:56:35;97869.22;;;8.89;41.95
42887;BME280;29032;56.028;92.904;2022-11-15T07:01:56;97874.16;;;9.05;41.50
42887;BME280;29032;56.028;92.904;2022-11-15T07:07:17;97860.56;;;9.17;41.47
42887;BME280;29032;56.028;92.904;2022-11-15T07:12:38;97847.81;;;9.14;41.21
42887;BME280;29032;56.028;92.904;2022-11-15T07:18:00;97847.63;;;9.20;40.93
42887;BME280;29032;56.028;92.904;2022-11-15T07:23:22;97832.84;;;9.42;41.01
42887;BME280;29032;56.028;92.904;2022-11-15T07:28:43;97837.84;;;9.69;41.09
42887;BME280;29032;56.028;92.904;2022-11-15T07:34:03;97840.44;;;9.67;40.32
42887;BME280;29032;56.028;92.904;2022-11-15T07:39:25;97831.31;;;9.49;39.74
42887;BME280;29032;56.028;92.904;2022-11-15T07:44:45;97826.66;;;9.26;41.21
42887;BME280;29032;56.028;92.904;2022-11-15T07:50:06;97810.31;;;9.30;39.08
42887;BME280;29032;56.028;92.904;2022-11-15T07:55:28;97803.31;;;9.29;40.15
42887;BME280;29032;56.028;92.904;2022-11-15T08:00:49;97803.88;;;9.28;40.31
42887;BME280;29032;56.028;92.904;2022-11-15T08:06:09;97803.34;;;9.22;39.76
42887;BME280;29032;56.028;92.904;2022-11-15T08:11:31;97802.78;;;9.23;40.79
42887;BME280;29032;56.028;92.904;2022-11-15T08:16:51;97798.19;;;9.18;40.64
42887;BME280;29032;56.028;92.904;2022-11-15T08:22:12;97803.94;;;9.20;40.77
42887;BME280;29032;56.028;92.904;2022-11-15T08:27:33;97807.13;;;9.09;40.81
42887;BME280;29032;56.028;92.904;2022-11-15T08:32:55;97802.78;;;8.91;40.31
42887;BME280;29032;56.028;92.904;2022-11-15T08:38:16;97790.97;;;8.82;39.63
42887;BME280;29032;56.028;92.904;2022-11-15T08:43:38;97796.78;;;8.62;40.61
42887;BME280;29032;56.028;92.904;2022-11-15T08:48:59;97789.59;;;8.59;41.08
42887;BME280;29032;56.028;92.904;2022-11-15T08:54:19;97782.00;;;8.59;42.07
42887;BME280;29032;56.028;92.904;2022-11-15T08:59:41;97774.38;;;8.67;41.62
42887;BME280;29032;56.028;92.904;2022-11-15T09:05:01;97767.75;;;8.55;42.27
42887;BME280;29032;56.028;92.904;2022-11-15T09:10:22;97774.44;;;8.52;40.36
42887;BME280;29032;56.028;92.904;2022-11-15T09:15:44;97775.22;;;8.45;40.23
42887;BME280;29032;56.028;92.904;2022-11-15T09:21:04;97777.09;;;8.35;41.03
42887;BME280;29032;56.028;92.904;2022-11-15T09:26:25;97774.13;;;8.33;40.13
42887;BME280;29032;56.028;92.904;2022-11-15T09:31:48;97775.59;;;8.34;41.13
42887;BME280;29032;56.028;92.904;2022-11-15T09:37:08;97774.00;;;8.23;40.71
42887;BME280;29032;56.028;92.904;2022-11-15T09:42:48;97769.72;;;8.30;41.84
42887;BME280;29032;56.028;92.904;2022-11-15T09:48:29;97776.97;;;8.10;42.21
42887;BME280;29032;56.028;92.904;2022-11-15T09:54:11;97765.72;;;8.08;41.52
42887;BME280;29032;56.028;92.904;2022-11-15T09:59:28;97761.09;;;8.03;41.45
42887;BME280;29032;56.028;92.904;2022-11-15T10:04:36;97758.69;;;7.99;41.89
42887;BME280;29032;56.028;92.904;2022-11-15T10:09:42;97757.97;;;7.98;41.62
42887;BME280;29032;56.028;92.904;2022-11-15T10:14:49;97742.09;;;7.84;42.31
42887;BME280;29032;56.028;92.904;2022-11-15T10:20:03;97736.94;;;7.88;42.27
42887;BME280;29032;56.028;92.904;2022-11-15T10:25:20;97746.00;;;7.73;42.49
42887;BME280;29032;56.028;92.904;2022-11-15T10:30:30;97735.88;;;7.60;42.50
42887;BME280;29032;56.028;92.904;2022-11-15T10:35:34;97740.28;;;7.63;42.53
42887;BME280;29032;56.028;92.904;2022-11-15T10:40:37;97739.75;;;7.57;42.09
42887;BME280;29032;56.028;92.904;2022-11-15T10:45:39;97738.63;;;7.60;42.24
42887;BME280;29032;56.028;92.904;2022-11-15T10:50:44;97727.72;;;7.70;42.84
42887;BME280;29032;56.028;92.904;2022-11-15T10:55:47;97721.09;;;7.65;42.16
42887;BME280;29032;56.028;92.904;2022-11-15T11:00:52;97726.25;;;7.61;42.89
42887;BME280;29032;56.028;92.904;2022-11-15T11:06:06;97724.03;;;7.67;42.06
42887;BME280;29032;56.028;92.904;2022-11-15T11:11:08;97723.31;;;7.52;42.45
42887;BME280;29032;56.028;92.904;2022-11-15T11:16:23;97718.13;;;7.56;42.86
42887;BME280;29032;56.028;92.904;2022-11-15T11:21:36;97713.53;;;7.58;42.67
42887;BME280;29032;56.028;92.904;2022-11-15T11:26:48;97708.53;;;7.57;43.70
42887;BME280;29032;56.028;92.904;2022-11-15T11:32:01;97720.72;;;7.54;42.94
42887;BME280;29032;56.028;92.904;2022-11-15T11:37:15;97719.81;;;7.43;44.68
42887;BME280;29032;56.028;92.904;2022-11-15T11:42:29;97717.41;;;7.40;43.79
42887;BME280;29032;56.028;92.904;2022-11-15T11:47:35;97712.63;;;7.33;44.17
42887;BME280;29032;56.028;92.904;2022-11-15T11:52:45;97716.69;;;7.39;44.69
42887;BME280;29032;56.028;92.904;2022-11-15T11:57:59;97711.13;;;7.47;44.30
42887;BME280;29032;56.028;92.904;2022-11-15T12:03:09;97701.91;;;7.44;44.53
42887;BME280;29032;56.028;92.904;2022-11-15T12:08:24;97697.47;;;7.49;44.94
42887;BME280;29032;56.028;92.904;2022-11-15T12:13:29;97700.81;;;7.40;44.56
42887;BME280;29032;56.028;92.904;2022-11-15T12:18:33;97687.88;;;7.35;44.39
42887;BME280;29032;56.028;92.904;2022-11-15T12:23:40;97687.16;;;7.34;44.50
42887;BME280;29032;56.028;92.904;2022-11-15T12:28:47;97682.31;;;7.19;45.27
42887;BME280;29032;56.028;92.904;2022-11-15T12:33:55;97678.81;;;7.11;46.11
42887;BME280;29032;56.028;92.904;2022-11-15T12:38:59;97671.81;;;7.10;46.06
42887;BME280;29032;56.028;92.904;2022-11-15T12:44:01;97673.28;;;6.73;48.45
42887;BME280;29032;56.028;92.904;2022-11-15T12:49:09;97666.28;;;6.80;48.83
42887;BME280;29032;56.028;92.904;2022-11-15T13:05:56;97653.94;;;7.27;48.21
42887;BME280;29032;56.028;92.904;2022-11-15T13:16:41;97632.16;;;7.15;49.02
42887;BME280;29032;56.028;92.904;2022-11-15T13:21:49;97632.16;;;7.15;48.88
42887;BME280;29032;56.028;92.904;2022-11-15T13:26:51;97614.47;;;7.03;49.76
42887;BME280;29032;56.028;92.904;2022-11-15T13:31:55;97612.97;;;7.10;49.69
42887;BME280;29032;56.028;92.904;2022-11-15T13:36:57;97600.44;;;7.16;49.39
42887;BME280;29032;56.028;92.904;2022-11-15T13:41:59;97584.56;;;7.32;49.27
42887;BME280;29032;56.028;92.904;2022-11-15T13:47:04;97577.88;;;7.35;48.77
42887;BME280;29032;56.028;92.904;2022-11-15T13:52:13;97567.22;;;7.16;49.50
42887;BME280;29032;56.028;92.904;2022-11-15T13:57:18;97539.56;;;7.09;49.40
42887;BME280;29032;56.028;92.904;2022-11-15T14:02:31;97555.19;;;7.22;48.61
42887;BME280;29032;56.028;92.904;2022-11-15T14:07:34;97582.34;;;7.00;48.92
42887;BME280;29032;56.028;92.904;2022-11-15T14:12:36;97560.44;;;6.87;49.28
42887;BME280;29032;56.028;92.904;2022-11-15T14:17:39;97558.41;;;6.95;48.97
42887;BME280;29032;56.028;92.904;2022-11-15T14:22:51;97569.44;;;7.10;48.91
42887;BME280;29032;56.028;92.904;2022-11-15T14:28:15;97561.13;;;7.26;48.22
42887;BME280;29032;56.028;92.904;2022-11-15T14:33:22;97565.75;;;7.31;48.19
42887;BME280;29032;56.028;92.904;2022-11-15T14:38:25;97565.75;;;7.31;47.93
42887;BME280;29032;56.028;92.904;2022-11-15T14:43:27;97549.88;;;7.16;48.19
42887;BME280;29032;56.028;92.904;2022-11-15T14:48:31;97550.78;;;7.18;47.98
42887;BME280;29032;56.028;92.904;2022-11-15T14:53:33;97559.09;;;7.18;48.78
42887;BME280;29032;56.028;92.904;2022-11-15T14:58:35;97575.69;;;7.18;46.91
42887;BME280;29032;56.028;92.904;2022-11-15T15:03:39;97570.34;;;7.21;46.78
42887;BME280;29032;56.028;92.904;2022-11-15T15:08:41;97564.47;;;6.94;47.54
42887;BME280;29032;56.028;92.904;2022-11-15T15:13:43;97558.41;;;6.72;48.24
42887;BME280;29032;56.028;92.904;2022-11-15T15:18:47;97564.66;;;6.57;49.46
42887;BME280;29032;56.028;92.904;2022-11-15T15:23:49;97566.88;;;6.51;50.05
42887;BME280;29032;56.028;92.904;2022-11-15T15:28:51;97554.91;;;6.56;49.91
42887;BME280;29032;56.028;92.904;2022-11-15T15:33:55;97560.97;;;6.70;49.64
42887;BME280;29032;56.028;92.904;2022-11-15T15:38:57;97565.44;;;6.73;49.60
42887;BME280;29032;56.028;92.904;2022-11-15T15:43:59;97556.56;;;6.82;49.23
42887;BME280;29032;56.028;92.904;2022-11-15T15:49:02;97565.78;;;6.85;48.89
42887;BME280;29032;56.028;92.904;2022-11-15T15:54:05;97569.47;;;6.87;49.27
42887;BME280;29032;56.028;92.904;2022-11-15T15:59:07;97560.06;;;6.83;50.24
42887;BME280;29032;56.028;92.904;2022-11-15T16:04:10;97568.72;;;6.72;48.61
42887;BME280;29032;56.028;92.904;2022-11-15T16:09:13;97571.31;;;6.54;49.51
42887;BME280;29032;56.028;92.904;2022-11-15T16:14:16;97590.44;;;6.37;49.57
42887;BME280;29032;56.028;92.904;2022-11-15T16:19:21;97596.34;;;6.26;49.41
42887;BME280;29032;56.028;92.904;2022-11-15T16:24:23;97611.00;;;5.98;51.87
42887;BME280;29032;56.028;92.904;2022-11-15T16:29:25;97616.47;;;5.90;52.26
42887;BME280;29032;56.028;92.904;2022-11-15T16:34:29;97626.59;;;5.88;51.63
42887;BME280;29032;56.028;92.904;2022-11-15T16:39:31;97640.00;;;5.76;52.29
42887;BME280;29032;56.028;92.904;2022-11-15T16:44:33;97646.00;;;5.67;52.88
42887;BME280;29032;56.028;92.904;2022-11-15T16:49:37;97667.53;;;5.61;53.24
42887;BME280;29032;56.028;92.904;2022-11-15T16:54:39;97673.19;;;5.34;54.04
42887;BME280;29032;56.028;92.904;2022-11-15T16:59:41;97681.44;;;5.06;56.02
42887;BME280;29032;56.028;92.904;2022-11-15T17:04:45;97694.38;;;4.90;56.63
42887;BME280;29032;56.028;92.904;2022-11-15T17:09:47;97688.22;;;4.63;56.62
42887;BME280;29032;56.028;92.904;2022-11-15T17:14:50;97720.91;;;4.46;57.55
42887;BME280;29032;56.028;92.904;2022-11-15T17:19:53;97725.69;;;4.45;58.10
42887;BME280;29032;56.028;92.904;2022-11-15T17:24:55;97730.50;;;4.31;58.08
42887;BME280;29032;56.028;92.904;2022-11-15T17:29:57;97729.44;;;4.34;58.28
42887;BME280;29032;56.028;92.904;2022-11-15T17:35:01;97706.84;;;4.36;58.28
42887;BME280;29032;56.028;92.904;2022-11-15T17:40:04;97718.91;;;4.46;57.31
42887;BME280;29032;56.028;92.904;2022-11-15T17:45:07;97734.25;;;4.55;57.39
42887;BME280;29032;56.028;92.904;2022-11-15T17:50:10;97739.63;;;4.60;57.58
42887;BME280;29032;56.028;92.904;2022-11-15T17:55:13;97736.97;;;4.68;57.14
42887;BME280;29032;56.028;92.904;2022-11-15T18:00:17;97751.13;;;4.85;56.69
42887;BME280;29032;56.028;92.904;2022-11-15T18:05:20;97745.88;;;4.95;56.58
42887;BME280;29032;56.028;92.904;2022-11-15T18:10:22;97745.00;;;5.00;56.38
42887;BME280;29032;56.028;92.904;2022-11-15T18:15:25;97749.03;;;4.99;55.29
42887;BME280;29032;56.028;92.904;2022-11-15T18:20:28;97750.44;;;4.92;54.87
42887;BME280;29032;56.028;92.904;2022-11-15T18:25:30;97754.72;;;4.80;54.80
42887;BME280;29032;56.028;92.904;2022-11-15T18:30:32;97749.16;;;4.72;56.10
42887;BME280;29032;56.028;92.904;2022-11-15T18:35:36;97768.31;;;4.78;55.01
42887;BME280;29032;56.028;92.904;2022-11-15T18:40:38;97771.94;;;4.73;55.29
42887;BME280;29032;56.028;92.904;2022-11-15T18:45:40;97771.63;;;4.77;56.00
42887;BME280;29032;56.028;92.904;2022-11-15T18:50:43;97778.34;;;4.89;55.33
42887;BME280;29032;56.028;92.904;2022-11-15T18:55:45;97788.88;;;4.90;55.07
42887;BME280;29032;56.028;92.904;2022-11-15T19:00:48;97778.44;;;4.96;54.96
42887;BME280;29032;56.028;92.904;2022-11-15T19:05:51;97785.44;;;4.97;54.32
42887;BME280;29032;56.028;92.904;2022-11-15T19:10:53;97777.28;;;4.92;54.69
42887;BME280;29032;56.028;92.904;2022-11-15T19:15:59;97787.97;;;4.95;54.45
42887;BME280;29032;56.028;92.904;2022-11-15T19:21:05;97784.81;;;4.91;53.87
42887;BME280;29032;56.028;92.904;2022-11-15T19:26:10;97775.06;;;4.90;53.40
42887;BME280;29032;56.028;92.904;2022-11-15T19:31:13;97789.47;;;4.96;53.03
42887;BME280;29032;56.028;92.904;2022-11-15T19:36:19;97802.00;;;4.97;52.37
42887;BME280;29032;56.028;92.904;2022-11-15T19:41:23;97795.31;;;4.93;52.12
42887;BME280;29032;56.028;92.904;2022-11-15T19:46:25;97805.84;;;4.81;52.04
42887;BME280;29032;56.028;92.904;2022-11-15T19:51:29;97801.16;;;4.89;51.80
42887;BME280;29032;56.028;92.904;2022-11-15T19:56:32;97806.50;;;4.74;51.76
42887;BME280;29032;56.028;92.904;2022-11-15T20:01:35;97812.47;;;4.65;52.62
42887;BME280;29032;56.028;92.904;2022-11-15T20:06:41;97819.66;;;4.68;52.39
42887;BME280;29032;56.028;92.904;2022-11-15T20:11:43;97823.81;;;4.61;52.61
42887;BME280;29032;56.028;92.904;2022-11-15T20:16:45;97824.56;;;4.49;52.85
42887;BME280;29032;56.028;92.904;2022-11-15T20:21:49;97808.13;;;4.56;52.52
42887;BME280;29032;56.028;92.904;2022-11-15T20:26:51;97804.53;;;4.61;52.28
42887;BME280;29032;56.028;92.904;2022-11-15T20:31:53;97815.63;;;4.69;51.88
42887;BME280;29032;56.028;92.904;2022-11-15T20:36:56;97809.69;;;4.78;51.47
42887;BME280;29032;56.028;92.904;2022-11-15T20:41:58;97810.31;;;4.84;51.19
42887;BME280;29032;56.028;92.904;2022-11-15T20:47:00;97821.72;;;4.88;50.60
42887;BME280;29032;56.028;92.904;2022-11-15T20:52:04;97816.22;;;4.88;50.32
42887;BME280;29032;56.028;92.904;2022-11-15T20:57:06;97818.97;;;4.88;50.57
42887;BME280;29032;56.028;92.904;2022-11-15T21:02:14;97832.53;;;4.99;49.81
42887;BME280;29032;56.028;92.904;2022-11-15T21:07:17;97830.22;;;4.90;49.48
42887;BME280;29032;56.028;92.904;2022-11-15T21:12:20;97832.34;;;4.84;49.03
42887;BME280;29032;56.028;92.904;2022-11-15T21:17:22;97835.50;;;4.88;48.76
42887;BME280;29032;56.028;92.904;2022-11-15T21:22:25;97832.63;;;4.94;49.38
42887;BME280;29032;56.028;92.904;2022-11-15T21:27:27;97844.84;;;4.98;49.18
42887;BME280;29032;56.028;92.904;2022-11-15T21:32:30;97836.63;;;5.06;48.24
42887;BME280;29032;56.028;92.904;2022-11-15T21:37:33;97831.88;;;5.07;48.38
42887;BME280;29032;56.028;92.904;2022-11-15T21:42:35;97828.47;;;5.01;47.58
42887;BME280;29032;56.028;92.904;2022-11-15T21:47:37;97844.22;;;4.92;48.41
42887;BME280;29032;56.028;92.904;2022-11-15T21:52:41;97846.34;;;4.86;47.14
42887;BME280;29032;56.028;92.904;2022-11-15T21:57:43;97851.22;;;4.80;48.18
42887;BME280;29032;56.028;92.904;2022-11-15T22:02:45;97840.63;;;4.84;47.74
42887;BME280;29032;56.028;92.904;2022-11-15T22:07:49;97852.59;;;4.87;47.68
42887;BME280;29032;56.028;92.904;2022-11-15T22:12:51;97852.06;;;4.88;48.34
42887;BME280;29032;56.028;92.904;2022-11-15T22:17:53;97862.66;;;4.97;47.86
42887;BME280;29032;56.028;92.904;2022-11-15T22:22:57;97871.22;;;5.07;47.71
42887;BME280;29032;56.028;92.904;2022-11-15T22:28:00;97877.47;;;5.08;47.31
42887;BME280;29032;56.028;92.904;2022-11-15T22:33:02;97885.44;;;5.11;47.14
42887;BME280;29032;56.028;92.904;2022-11-15T22:38:05;97877.94;;;4.98;47.53
42887;BME280;29032;56.028;92.904;2022-11-15T22:43:08;97886.03;;;4.83;47.50
42887;BME280;29032;56.028;92.904;2022-11-15T22:48:12;97896.41;;;4.77;48.41
42887;BME280;29032;56.028;92.904;2022-11-15T22:53:16;97886.75;;;4.84;48.07
42887;BME280;29032;56.028;92.904;2022-11-15T22:58:19;97893.97;;;4.74;48.31
42887;BME280;29032;56.028;92.904;2022-11-15T23:03:21;97882.44;;;4.62;49.11
42887;BME280;29032;56.028;92.904;2022-11-15T23:08:25;97873.84;;;4.65;48.71
42887;BME280;29032;56.028;92.904;2022-11-15T23:13:29;97887.41;;;4.63;49.15
42887;BME280;29032;56.028;92.904;2022-11-15T23:18:35;97884.75;;;4.71;49.58
42887;BME280;29032;56.028;92.904;2022-11-15T23:23:39;97875.09;;;4.78;49.06
42887;BME280;29032;56.028;92.904;2022-11-15T23:28:41;97874.75;;;4.81;47.71
42887;BME280;29032;56.028;92.904;2022-11-15T23:33:43;97882.31;;;4.67;48.85
42887;BME280;29032;56.028;92.904;2022-11-15T23:38:47;97878.41;;;4.63;48.83
42887;BME280;29032;56.028;92.904;2022-11-15T23:43:49;97889.53;;;4.70;48.81
42887;BME280;29032;56.028;92.904;2022-11-15T23:48:51;97878.50;;;4.84;48.64
42887;BME280;29032;56.028;92.904;2022-11-15T23:53:55;97902.09;;;5.06;49.31
42887;BME280;29032;56.028;92.904;2022-11-15T23:58:57;97905.78;;;5.08;49.30
